Time;durP1;ratioP1;P1;durP2;ratioP2;P2;SDS_P1;SDS_P2;PMS_P1;PMS_P2;Temp;Humidity;BMP_temperature;BMP_pressure;BME280_temperature;BME280_humidity;BME280_pressure;Samples;Min_cycle;Max_cycle;Signal;HPM_P1;HPM_P2
2022/05/28 00:00:37;;;;;;;3.43;2.70;;;;;;;;;;5117337;28;20985;-71
2022/05/28 00:03:04;;;;;;;3.43;3.13;;;;;;;;;;5116860;28;20453;-71
2022/05/28 00:05:31;;;;;;;3.30;3.00;;;;;;;;;;5116668;27;20799;-71
2022/05/28 00:07:58;;;;;;;4.13;2.47;;;;;;;;;;5116714;28;20485;-71
2022/05/28 00:10:26;;;;;;;3.00;2.67;;;;;;;;;;5116761;28;20466;-71
2022/05/28 00:12:54;;;;;;;3.37;2.90;;;;;;;;;;5116840;28;20446;-71
2022/05/28 00:15:23;;;;;;;4.10;3.00;;;;;;;;;;5115899;28;20450;-71
2022/05/28 00:17:50;;;;;;;4.67;3.00;;;;;;;;;;5116823;28;20993;-71
2022/05/28 00:20:17;;;;;;;4.37;3.00;;;;;;;;;;5116464;27;20473;-71
2022/05/28 00:22:45;;;;;;;2.90;2.13;;;;;;;;;;5116757;28;20449;-71
2022/05/28 00:25:13;;;;;;;3.00;2.60;;;;;;;;;;5116241;28;20445;-71
2022/05/28 00:27:40;;;;;;;2.40;2.20;;;;;;;;;;5116669;27;20831;-71
2022/05/28 00:30:10;;;;;;;4.33;2.53;;;;;;;;;;5116543;28;20526;-71
2022/05/28 00:32:37;;;;;;;3.60;2.80;;;;;;;;;;5116524;28;20450;-71
2022/05/28 00:35:05;;;;;;;3.37;3.07;;;;;;;;;;5116008;28;20461;-71
2022/05/28 00:37:32;;;;;;;3.27;2.90;;;;;;;;;;5116500;28;20441;-71
2022/05/28 00:40:01;;;;;;;3.07;2.83;;;;;;;;;;5116341;28;20476;-71
2022/05/28 00:42:29;;;;;;;4.10;3.20;;;;;;;;;;5116179;28;20457;-71
2022/05/28 00:44:56;;;;;;;4.00;2.50;;;;;;;;;;5115889;28;20500;-72
2022/05/28 00:47:25;;;;;;;3.63;2.80;;;;;;;;;;5116129;28;20481;-72
2022/05/28 00:49:52;;;;;;;12.90;3.37;;;;;;;;;;5116054;28;20500;-72
2022/05/28 00:52:20;;;;;;;4.40;3.13;;;;;;;;;;5115962;28;20450;-71
2022/05/28 00:54:48;;;;;;;3.10;2.70;;;;;;;;;;5115874;28;20453;-72
2022/05/28 00:57:17;;;;;;;3.53;3.23;;;;;;;;;;5115910;28;20965;-71
2022/05/28 00:59:44;;;;;;;7.67;3.10;;;;;;;;;;5116041;28;20488;-71
2022/05/28 01:02:16;;;;;;;3.00;2.67;;;;;;;;;;5114924;28;20457;-71
2022/05/28 01:04:50;;;;;;;3.47;3.17;;;;;;;;;;5115878;28;20926;-71
2022/05/28 01:07:24;;;;;;;3.90;2.70;;;;;;;;;;5115692;28;20891;-71
2022/05/28 01:09:57;;;;;;;3.43;2.93;;;;;;;;;;5115637;28;20993;-71
2022/05/28 01:12:30;;;;;;;4.27;2.93;;;;;;;;;;5115646;28;20452;-71
2022/05/28 01:15:02;;;;;;;4.50;2.87;;;;;;;;;;5115200;28;20461;-71
2022/05/28 01:17:31;;;;;;;4.27;2.40;;;;;;;;;;5115748;28;20445;-71
2022/05/28 01:20:03;;;;;;;3.30;3.00;;;;;;;;;;5115643;28;20481;-71
2022/05/28 01:22:35;;;;;;;3.13;2.83;;;;;;;;;;5115525;28;20488;-71
2022/05/28 01:25:07;;;;;;;3.33;2.70;;;;;;;;;;5115315;28;20450;-71
2022/05/28 01:27:41;;;;;;;3.17;2.87;;;;;;;;;;5115544;28;20493;-71
2022/05/28 01:30:09;;;;;;;4.07;3.67;;;;;;;;;;5115275;28;20469;-71
2022/05/28 01:32:37;;;;;;;3.70;3.10;;;;;;;;;;5115534;28;20438;-71
2022/05/28 01:35:06;;;;;;;5.30;3.17;;;;;;;;;;5114989;28;20450;-72
2022/05/28 01:37:33;;;;;;;4.50;2.37;;;;;;;;;;5115165;28;20452;-71
2022/05/28 01:40:01;;;;;;;3.30;3.00;;;;;;;;;;5115127;28;20472;-71
2022/05/28 01:42:30;;;;;;;4.17;3.60;;;;;;;;;;5114953;28;20461;-71
2022/05/28 01:44:59;;;;;;;4.57;3.37;;;;;;;;;;5114828;28;20457;-71
2022/05/28 01:47:26;;;;;;;3.03;2.73;;;;;;;;;;5115001;28;20890;-71
2022/05/28 01:49:53;;;;;;;4.83;3.60;;;;;;;;;;5114844;28;20469;-71
2022/05/28 01:52:21;;;;;;;3.50;3.20;;;;;;;;;;5114898;28;20942;-72
2022/05/28 01:54:50;;;;;;;5.40;4.70;;;;;;;;;;5114774;28;20446;-71
2022/05/28 01:57:18;;;;;;;5.33;2.80;;;;;;;;;;5114640;28;20458;-71
2022/05/28 01:59:45;;;;;;;5.00;3.53;;;;;;;;;;5114696;28;20477;-71
2022/05/28 02:02:15;;;;;;;4.10;3.00;;;;;;;;;;5114675;27;20452;-71
2022/05/28 02:04:43;;;;;;;5.13;3.00;;;;;;;;;;5114647;27;20450;-71
2022/05/28 02:07:11;;;;;;;4.57;3.87;;;;;;;;;;5114633;28;20894;-71
2022/05/28 02:09:39;;;;;;;4.80;3.60;;;;;;;;;;5114545;28;20481;-71
2022/05/28 02:12:14;;;;;;;3.27;2.40;;;;;;;;;;5114581;28;20809;-71
2022/05/28 02:14:46;;;;;;;3.40;2.93;;;;;;;;;;5113842;28;20460;-71
2022/05/28 02:17:17;;;;;;;6.33;3.30;;;;;;;;;;5114631;28;20456;-71
2022/05/28 02:19:46;;;;;;;3.30;3.00;;;;;;;;;;5114347;27;20845;-71
2022/05/28 02:22:18;;;;;;;3.60;3.30;;;;;;;;;;5114323;28;20452;-71
2022/05/28 02:24:47;;;;;;;4.47;3.00;;;;;;;;;;5114139;28;20445;-71
2022/05/28 02:27:16;;;;;;;3.13;2.83;;;;;;;;;;5114063;28;20450;-71
2022/05/28 02:29:43;;;;;;;3.40;3.10;;;;;;;;;;5114154;28;20474;-71
2022/05/28 02:32:17;;;;;;;3.73;3.30;;;;;;;;;;5114102;28;20461;-71
2022/05/28 02:34:45;;;;;;;3.93;3.53;;;;;;;;;;5113935;28;20457;-71
2022/05/28 02:37:12;;;;;;;5.00;4.53;;;;;;;;;;5113925;28;20957;-71
2022/05/28 02:39:39;;;;;;;3.50;3.10;;;;;;;;;;5113965;28;20536;-71
2022/05/28 02:42:07;;;;;;;3.60;3.30;;;;;;;;;;5113871;28;20469;-71
2022/05/28 02:44:34;;;;;;;6.03;3.40;;;;;;;;;;5114005;28;20489;-71
2022/05/28 02:47:01;;;;;;;4.50;3.93;;;;;;;;;;5113921;28;20457;-71
2022/05/28 02:49:30;;;;;;;4.93;3.00;;;;;;;;;;5113787;28;20846;-71
2022/05/28 02:51:57;;;;;;;3.97;3.57;;;;;;;;;;5113806;28;20449;-71
2022/05/28 02:54:24;;;;;;;3.57;3.27;;;;;;;;;;5113594;28;20460;-71
2022/05/28 02:56:51;;;;;;;3.23;2.80;;;;;;;;;;5113749;28;20845;-71
2022/05/28 02:59:18;;;;;;;4.57;3.53;;;;;;;;;;5113735;28;20809;-71
2022/05/28 03:01:45;;;;;;;5.30;3.63;;;;;;;;;;5113694;28;20457;-71
2022/05/28 03:04:12;;;;;;;3.90;3.43;;;;;;;;;;5113394;28;20446;-72
2022/05/28 03:06:40;;;;;;;7.60;3.00;;;;;;;;;;5113793;28;20466;-72
2022/05/28 03:09:08;;;;;;;5.03;3.40;;;;;;;;;;5113325;28;20481;-72
2022/05/28 03:11:36;;;;;;;4.60;3.80;;;;;;;;;;5113752;28;20966;-71
2022/05/28 03:14:03;;;;;;;4.63;3.83;;;;;;;;;;5112758;28;20449;-71
2022/05/28 03:16:31;;;;;;;3.93;3.53;;;;;;;;;;5113788;28;20450;-71
2022/05/28 03:18:58;;;;;;;4.97;4.47;;;;;;;;;;5113409;28;20813;-71
2022/05/28 03:21:25;;;;;;;4.23;3.83;;;;;;;;;;5113488;28;20832;-71
2022/05/28 03:23:54;;;;;;;4.47;3.83;;;;;;;;;;5113366;28;20449;-71
2022/05/28 03:26:22;;;;;;;6.80;4.50;;;;;;;;;;5116912;28;20453;-71
2022/05/28 03:28:50;;;;;;;4.43;3.70;;;;;;;;;;5117740;28;20997;-71
2022/05/28 03:31:17;;;;;;;6.27;4.83;;;;;;;;;;5117568;28;20534;-71
2022/05/28 03:33:44;;;;;;;7.73;4.60;;;;;;;;;;5117335;28;20461;-71
2022/05/28 03:36:12;;;;;;;4.57;3.63;;;;;;;;;;5117468;28;20449;-71
2022/05/28 03:38:39;;;;;;;5.73;3.80;;;;;;;;;;5117606;28;20452;-71
2022/05/28 03:41:07;;;;;;;4.63;3.83;;;;;;;;;;5117454;28;20832;-71
2022/05/28 03:43:34;;;;;;;4.40;3.87;;;;;;;;;;5117158;28;20457;-72
2022/05/28 03:46:02;;;;;;;5.37;3.97;;;;;;;;;;5117365;27;20449;-72
2022/05/28 03:48:30;;;;;;;5.23;4.07;;;;;;;;;;5117306;28;20485;-72
2022/05/28 03:50:57;;;;;;;8.33;4.27;;;;;;;;;;5117494;28;20474;-71
2022/05/28 03:53:24;;;;;;;6.03;3.20;;;;;;;;;;5117348;28;20456;-71
2022/05/28 03:55:52;;;;;;;8.47;5.60;;;;;;;;;;5117082;28;20445;-72
2022/05/28 03:58:21;;;;;;;5.20;4.40;;;;;;;;;;5117042;28;20457;-71
2022/05/28 04:00:48;;;;;;;4.50;3.40;;;;;;;;;;5116930;28;20465;-71
2022/05/28 04:03:15;;;;;;;6.00;3.83;;;;;;;;;;5116977;28;20964;-72
2022/05/28 04:05:42;;;;;;;5.07;3.30;;;;;;;;;;5116831;28;20472;-72
2022/05/28 04:08:09;;;;;;;6.03;3.33;;;;;;;;;;5116769;28;20481;-71
2022/05/28 04:10:36;;;;;;;8.70;3.40;;;;;;;;;;5116828;28;20470;-71
2022/05/28 04:13:03;;;;;;;6.90;3.90;;;;;;;;;;5116847;28;20857;-71
2022/05/28 04:15:32;;;;;;;4.33;3.00;;;;;;;;;;5116637;28;20457;-71
2022/05/28 04:18:00;;;;;;;7.37;3.57;;;;;;;;;;5116760;27;20450;-71
2022/05/28 04:20:27;;;;;;;4.40;3.40;;;;;;;;;;5116706;28;20556;-71
2022/05/28 04:22:54;;;;;;;10.90;3.80;;;;;;;;;;5116667;28;20453;-71
2022/05/28 04:25:21;;;;;;;9.70;5.50;;;;;;;;;;5116307;28;20461;-72
2022/05/28 04:27:48;;;;;;;6.20;4.53;;;;;;;;;;5116951;28;20450;-72
2022/05/28 04:30:15;;;;;;;7.17;3.87;;;;;;;;;;5116289;28;20492;-72
2022/05/28 04:32:44;;;;;;;6.20;4.20;;;;;;;;;;5116729;28;20901;-72
2022/05/28 04:35:11;;;;;;;4.80;4.30;;;;;;;;;;5116076;28;20453;-72
2022/05/28 04:37:38;;;;;;;4.20;3.87;;;;;;;;;;5116221;28;20456;-72
2022/05/28 04:40:06;;;;;;;8.00;4.83;;;;;;;;;;5116139;28;20843;-71
2022/05/28 04:42:33;;;;;;;6.97;4.30;;;;;;;;;;5116116;28;20693;-71
2022/05/28 04:45:00;;;;;;;5.13;4.60;;;;;;;;;;5116027;28;20446;-71
2022/05/28 04:47:27;;;;;;;16.87;5.60;;;;;;;;;;5116208;28;20807;-71
2022/05/28 04:49:56;;;;;;;4.97;4.40;;;;;;;;;;5116143;28;20505;-71
2022/05/28 04:52:23;;;;;;;6.80;4.47;;;;;;;;;;5116262;28;20453;-71
2022/05/28 04:54:50;;;;;;;6.40;3.90;;;;;;;;;;5115807;28;20450;-71
2022/05/28 04:57:17;;;;;;;4.10;3.70;;;;;;;;;;5115946;28;20981;-71
2022/05/28 04:59:44;;;;;;;5.83;4.23;;;;;;;;;;5115928;28;20476;-71
2022/05/28 05:02:11;;;;;;;11.93;5.03;;;;;;;;;;5115911;28;20461;-71
2022/05/28 05:04:38;;;;;;;4.87;3.73;;;;;;;;;;5115737;28;20454;-71
2022/05/28 05:07:07;;;;;;;6.47;3.80;;;;;;;;;;5115695;28;20457;-71
2022/05/28 05:09:34;;;;;;;5.43;3.10;;;;;;;;;;5115776;28;21096;-71
2022/05/28 05:12:01;;;;;;;3.53;2.97;;;;;;;;;;5115776;28;20453;-71
2022/05/28 05:14:28;;;;;;;3.70;3.27;;;;;;;;;;5115011;28;20930;-71
2022/05/28 05:16:55;;;;;;;3.60;3.03;;;;;;;;;;5115789;28;20450;-71
2022/05/28 05:19:22;;;;;;;6.70;4.57;;;;;;;;;;5115503;27;20453;-71
2022/05/28 05:21:49;;;;;;;4.77;3.40;;;;;;;;;;5115461;28;20450;-71
2022/05/28 05:24:18;;;;;;;3.93;3.10;;;;;;;;;;5115276;28;20825;-72
2022/05/28 05:26:45;;;;;;;5.80;3.97;;;;;;;;;;5115434;28;20461;-71
2022/05/28 05:29:12;;;;;;;4.80;2.70;;;;;;;;;;5115438;28;20482;-72
2022/05/28 05:31:40;;;;;;;5.90;2.90;;;;;;;;;;5115333;28;21004;-72
2022/05/28 05:34:07;;;;;;;5.63;2.87;;;;;;;;;;5114928;28;20458;-71
2022/05/28 05:36:34;;;;;;;4.97;2.90;;;;;;;;;;5115380;28;20867;-71
2022/05/28 05:39:01;;;;;;;4.70;2.50;;;;;;;;;;5115216;28;20812;-71
2022/05/28 05:41:30;;;;;;;8.53;2.90;;;;;;;;;;5115222;28;20466;-71
2022/05/28 05:43:57;;;;;;;4.20;2.90;;;;;;;;;;5115269;28;20799;-71
2022/05/28 05:46:24;;;;;;;3.30;2.60;;;;;;;;;;5114988;28;20445;-71
2022/05/28 05:48:51;;;;;;;7.83;2.60;;;;;;;;;;5114431;28;20542;-71
2022/05/28 05:51:19;;;;;;;4.93;2.50;;;;;;;;;;5114724;28;20469;-72
2022/05/28 05:53:46;;;;;;;7.97;3.23;;;;;;;;;;5114595;28;20450;-72
2022/05/28 05:56:13;;;;;;;5.07;3.00;;;;;;;;;;5114753;28;20456;-72
2022/05/28 05:58:41;;;;;;;6.43;3.47;;;;;;;;;;5114998;28;20458;-71
2022/05/28 06:01:09;;;;;;;5.07;2.50;;;;;;;;;;5114574;28;20480;-71
2022/05/28 06:03:36;;;;;;;10.20;2.40;;;;;;;;;;5114531;28;20441;-72
2022/05/28 06:06:05;;;;;;;3.50;2.37;;;;;;;;;;5114554;28;20445;-72
2022/05/28 06:08:32;;;;;;;8.67;2.50;;;;;;;;;;5114673;28;20445;-72
2022/05/28 06:10:59;;;;;;;4.43;2.50;;;;;;;;;;5114425;28;20470;-72
2022/05/28 06:13:27;;;;;;;5.17;2.40;;;;;;;;;;5114498;28;20456;-72
2022/05/28 06:15:55;;;;;;;3.47;2.20;;;;;;;;;;5113954;27;20446;-72
2022/05/28 06:18:22;;;;;;;2.90;2.30;;;;;;;;;;5114824;28;20448;-72
2022/05/28 06:20:49;;;;;;;6.40;3.30;;;;;;;;;;5114296;28;20465;-72
2022/05/28 06:23:17;;;;;;;4.87;2.33;;;;;;;;;;5114365;28;20460;-71
2022/05/28 06:25:44;;;;;;;4.00;2.67;;;;;;;;;;5114184;28;20493;-71
2022/05/28 06:28:11;;;;;;;5.03;2.20;;;;;;;;;;5114235;28;20445;-71
2022/05/28 06:30:39;;;;;;;4.57;1.90;;;;;;;;;;5113850;28;20500;-71
2022/05/28 06:33:08;;;;;;;6.53;2.60;;;;;;;;;;5114001;28;20499;-71
2022/05/28 06:35:35;;;;;;;7.10;2.10;;;;;;;;;;5114073;28;20445;-71
2022/05/28 06:38:02;;;;;;;7.17;2.27;;;;;;;;;;5114006;28;20813;-71
2022/05/28 06:40:29;;;;;;;4.23;2.20;;;;;;;;;;5114131;28;20458;-72
2022/05/28 06:42:56;;;;;;;4.00;2.13;;;;;;;;;;5114022;28;20477;-72
2022/05/28 06:45:24;;;;;;;6.30;2.27;;;;;;;;;;5113741;28;20450;-72
2022/05/28 06:47:51;;;;;;;2.47;2.07;;;;;;;;;;5114022;28;20449;-72
2022/05/28 06:53:07;;;;;;;13.80;2.40;;;;;;;;;;5113995;28;20429;-72
2022/05/28 06:55:35;;;;;;;7.90;2.90;;;;;;;;;;5113347;27;20514;-71
2022/05/28 06:58:02;;;;;;;6.37;2.87;;;;;;;;;;5113769;28;20453;-71
2022/05/28 07:00:29;;;;;;;4.53;2.57;;;;;;;;;;5112824;28;20461;-71
2022/05/28 07:02:56;;;;;;;8.87;2.60;;;;;;;;;;5113701;27;20478;-72
2022/05/28 07:05:25;;;;;;;4.57;2.00;;;;;;;;;;5113528;28;20943;-72
2022/05/28 07:07:52;;;;;;;4.20;2.53;;;;;;;;;;5113647;28;20536;-72
2022/05/28 07:10:19;;;;;;;5.70;2.37;;;;;;;;;;5113276;28;20986;-72
2022/05/28 07:12:46;;;;;;;4.47;2.47;;;;;;;;;;5113721;28;20456;-72
2022/05/28 07:15:14;;;;;;;4.77;1.93;;;;;;;;;;5113011;28;20450;-72
2022/05/28 07:17:41;;;;;;;5.10;2.60;;;;;;;;;;5113695;28;20506;-72
2022/05/28 07:20:09;;;;;;;5.27;2.40;;;;;;;;;;5113395;28;20461;-72
2022/05/28 07:22:38;;;;;;;7.13;2.80;;;;;;;;;;5113585;28;20926;-72
2022/05/28 07:25:06;;;;;;;4.50;2.00;;;;;;;;;;5113241;28;20445;-72
2022/05/28 07:27:33;;;;;;;5.93;3.60;;;;;;;;;;5113431;28;20453;-72
2022/05/28 07:30:01;;;;;;;4.47;2.90;;;;;;;;;;5113254;28;20990;-72
2022/05/28 07:32:30;;;;;;;4.40;2.60;;;;;;;;;;5113460;28;20458;-72
2022/05/28 07:34:57;;;;;;;5.97;2.40;;;;;;;;;;5113150;28;20955;-72
2022/05/28 07:37:24;;;;;;;5.43;2.50;;;;;;;;;;5113179;28;20453;-72
2022/05/28 07:39:53;;;;;;;3.37;2.63;;;;;;;;;;5113328;28;20466;-72
2022/05/28 07:42:20;;;;;;;3.83;2.40;;;;;;;;;;5113212;28;20828;-72
2022/05/28 07:44:47;;;;;;;4.07;2.43;;;;;;;;;;5107602;28;20454;-72
2022/05/28 07:47:14;;;;;;;6.97;2.10;;;;;;;;;;5111717;28;20457;-72
2022/05/28 07:49:41;;;;;;;17.17;9.83;;;;;;;;;;5111738;28;20576;-72
2022/05/28 07:52:09;;;;;;;7.37;3.30;;;;;;;;;;5111352;28;20453;-72
2022/05/28 07:54:36;;;;;;;5.33;2.70;;;;;;;;;;5111703;28;20450;-72
2022/05/28 07:57:05;;;;;;;7.97;2.73;;;;;;;;;;5111727;28;20803;-72
2022/05/28 07:59:32;;;;;;;6.63;2.80;;;;;;;;;;5111501;28;20666;-72
2022/05/28 08:01:59;;;;;;;8.20;2.60;;;;;;;;;;5111754;28;20453;-72
2022/05/28 08:04:27;;;;;;;3.77;2.47;;;;;;;;;;5111385;28;20454;-72
2022/05/28 08:06:54;;;;;;;4.17;2.10;;;;;;;;;;5111490;28;20931;-72
2022/05/28 08:09:21;;;;;;;6.90;2.90;;;;;;;;;;5111108;28;20456;-72
2022/05/28 08:11:48;;;;;;;9.63;3.27;;;;;;;;;;5113854;28;20461;-72
2022/05/28 08:14:16;;;;;;;3.67;2.37;;;;;;;;;;5114537;28;20997;-72
2022/05/28 08:16:43;;;;;;;5.40;2.50;;;;;;;;;;5115415;28;20456;-72
2022/05/28 08:19:10;;;;;;;5.37;2.70;;;;;;;;;;5115167;28;20441;-72
2022/05/28 08:24:22;;;;;;;4.20;1.90;;;;;;;;;;5115233;28;20516;-72
2022/05/28 08:26:49;;;;;;;4.63;2.33;;;;;;;;;;5115285;28;20942;-72
2022/05/28 08:29:22;;;;;;;3.93;2.00;;;;;;;;;;5114656;28;20473;-72
2022/05/28 08:31:49;;;;;;;5.67;2.10;;;;;;;;;;5115156;28;20938;-72
2022/05/28 08:34:16;;;;;;;4.80;2.77;;;;;;;;;;5114735;28;20866;-72
2022/05/28 08:36:43;;;;;;;7.43;2.10;;;;;;;;;;5114856;28;20453;-72
2022/05/28 08:39:10;;;;;;;3.57;1.83;;;;;;;;;;5114836;28;20450;-72
2022/05/28 08:41:39;;;;;;;8.63;2.07;;;;;;;;;;5114862;27;20465;-72
2022/05/28 08:44:14;;;;;;;2.97;1.80;;;;;;;;;;5114285;28;20817;-72
2022/05/28 08:46:44;;;;;;;3.60;1.80;;;;;;;;;;5114704;28;20464;-72
2022/05/28 08:49:12;;;;;;;4.70;1.83;;;;;;;;;;5114422;27;20446;-72
2022/05/28 08:51:41;;;;;;;5.80;2.43;;;;;;;;;;5114454;28;20486;-72
2022/05/28 08:54:10;;;;;;;5.43;2.30;;;;;;;;;;5114434;28;20942;-72
2022/05/28 08:56:38;;;;;;;4.47;2.00;;;;;;;;;;5114582;28;20969;-72
2022/05/28 08:59:08;;;;;;;6.80;2.07;;;;;;;;;;5114263;28;20461;-72
2022/05/28 09:01:37;;;;;;;8.80;3.17;;;;;;;;;;5114761;28;20462;-71
2022/05/28 09:04:07;;;;;;;6.80;3.77;;;;;;;;;;5114247;28;20449;-72
2022/05/28 09:06:38;;;;;;;5.20;1.90;;;;;;;;;;5114169;27;20529;-71
2022/05/28 09:09:05;;;;;;;5.13;2.00;;;;;;;;;;5114364;28;20449;-72
2022/05/28 09:11:34;;;;;;;4.63;2.50;;;;;;;;;;5114212;28;20863;-72
2022/05/28 09:14:08;;;;;;;3.90;1.80;;;;;;;;;;5113914;28;20953;-72
2022/05/28 09:16:38;;;;;;;6.67;2.20;;;;;;;;;;5114285;28;20453;-71
2022/05/28 09:19:10;;;;;;;5.13;2.27;;;;;;;;;;5114161;28;20445;-71
2022/05/28 09:21:37;;;;;;;5.63;2.50;;;;;;;;;;5114089;28;20480;-71
2022/05/28 09:24:07;;;;;;;3.57;2.37;;;;;;;;;;5113021;28;20476;-72
2022/05/28 09:26:41;;;;;;;3.73;2.33;;;;;;;;;;5114120;28;20446;-71
2022/05/28 09:29:17;;;;;;;3.70;2.00;;;;;;;;;;5113731;28;20469;-72
2022/05/28 09:31:49;;;;;;;4.60;2.10;;;;;;;;;;5113974;28;20481;-71
2022/05/28 09:34:24;;;;;;;4.13;2.30;;;;;;;;;;5113781;28;20460;-71
2022/05/28 09:36:57;;;;;;;5.33;2.60;;;;;;;;;;5113788;28;20437;-71
2022/05/28 09:39:36;;;;;;;5.40;2.30;;;;;;;;;;5113525;28;20441;-71
2022/05/28 09:42:06;;;;;;;5.53;2.20;;;;;;;;;;5113535;28;20457;-71
2022/05/28 09:44:42;;;;;;;3.70;1.90;;;;;;;;;;5113880;28;20836;-71
2022/05/28 09:47:09;;;;;;;3.53;2.00;;;;;;;;;;5113472;28;20453;-71
2022/05/28 09:49:46;;;;;;;5.87;3.33;;;;;;;;;;5113336;28;20876;-71
2022/05/28 09:52:14;;;;;;;3.80;2.47;;;;;;;;;;5113463;28;20946;-71
2022/05/28 09:54:40;;;;;;;4.30;1.80;;;;;;;;;;5113381;28;20457;-71
2022/05/28 09:57:10;;;;;;;3.40;1.80;;;;;;;;;;5113034;28;20804;-71
2022/05/28 09:59:38;;;;;;;7.37;3.13;;;;;;;;;;5113390;28;20912;-71
2022/05/28 10:02:08;;;;;;;3.80;2.40;;;;;;;;;;5113127;27;20494;-71
2022/05/28 10:04:45;;;;;;;5.10;2.17;;;;;;;;;;5113095;27;20445;-71
2022/05/28 10:07:12;;;;;;;4.13;1.87;;;;;;;;;;5113126;28;20460;-71
2022/05/28 10:09:49;;;;;;;5.40;1.80;;;;;;;;;;5113129;28;20465;-71
2022/05/28 10:12:18;;;;;;;6.80;2.13;;;;;;;;;;5112816;28;20448;-71
2022/05/28 10:14:45;;;;;;;6.33;2.13;;;;;;;;;;5112923;28;20462;-71
2022/05/28 10:17:22;;;;;;;4.37;2.63;;;;;;;;;;5112926;28;20468;-71
2022/05/28 10:19:53;;;;;;;7.97;2.57;;;;;;;;;;5112886;28;20995;-71
2022/05/28 10:22:21;;;;;;;8.40;1.80;;;;;;;;;;5112824;28;20807;-71
2022/05/28 10:24:50;;;;;;;3.60;1.80;;;;;;;;;;5112672;28;20458;-71
2022/05/28 10:27:27;;;;;;;3.47;1.83;;;;;;;;;;5112618;28;20953;-71
2022/05/28 10:29:57;;;;;;;4.27;1.90;;;;;;;;;;5112812;28;20506;-71
2022/05/28 10:32:28;;;;;;;4.50;2.20;;;;;;;;;;5112683;28;20470;-71
2022/05/28 10:35:01;;;;;;;8.10;2.00;;;;;;;;;;5112359;28;20453;-71
2022/05/28 10:37:28;;;;;;;3.73;2.00;;;;;;;;;;5112765;28;20511;-71
2022/05/28 10:40:04;;;;;;;4.07;2.07;;;;;;;;;;5112581;28;20461;-71
2022/05/28 10:42:31;;;;;;;7.17;4.77;;;;;;;;;;5112507;28;20465;-71
2022/05/28 10:44:58;;;;;;;5.57;1.90;;;;;;;;;;5112360;28;20489;-71
2022/05/28 10:47:32;;;;;;;2.57;1.57;;;;;;;;;;5112643;28;20930;-71
2022/05/28 10:50:05;;;;;;;5.13;2.87;;;;;;;;;;5112016;27;20564;-71
2022/05/28 10:52:40;;;;;;;3.70;2.37;;;;;;;;;;5108952;28;20458;-71
2022/05/28 10:55:08;;;;;;;3.13;1.70;;;;;;;;;;5095965;28;20453;-71
2022/05/28 10:57:41;;;;;;;4.00;1.40;;;;;;;;;;5091804;28;20830;-71
2022/05/28 11:00:12;;;;;;;3.30;1.50;;;;;;;;;;5090192;28;20979;-71
2022/05/28 11:02:45;;;;;;;2.30;1.43;;;;;;;;;;5090400;28;20482;-71
2022/05/28 11:05:18;;;;;;;2.77;1.40;;;;;;;;;;5090462;28;20451;-71
2022/05/28 11:07:53;;;;;;;3.07;1.40;;;;;;;;;;5090586;28;20474;-71
2022/05/28 11:10:32;;;;;;;2.70;1.57;;;;;;;;;;5091676;28;21001;-71
2022/05/28 11:13:11;;;;;;;4.70;1.97;;;;;;;;;;5092408;28;20462;-71
2022/05/28 11:15:43;;;;;;;4.93;1.97;;;;;;;;;;5092903;28;20843;-71
2022/05/28 11:18:17;;;;;;;3.10;1.67;;;;;;;;;;5092990;28;20459;-71
2022/05/28 11:20:48;;;;;;;4.73;1.77;;;;;;;;;;5092963;28;20849;-71
2022/05/28 11:23:25;;;;;;;2.83;1.53;;;;;;;;;;5092861;28;20815;-71
2022/05/28 11:25:58;;;;;;;3.80;2.00;;;;;;;;;;5093028;28;20450;-71
2022/05/28 11:28:46;;;;;;;8.27;1.70;;;;;;;;;;5093157;28;20446;-71
2022/05/28 11:31:17;;;;;;;3.53;1.93;;;;;;;;;;5088062;28;20497;-71
2022/05/28 11:33:47;;;;;;;2.97;1.63;;;;;;;;;;5093034;28;20455;-71
2022/05/28 11:36:20;;;;;;;2.27;1.60;;;;;;;;;;5092936;28;20454;-71
2022/05/28 11:38:51;;;;;;;2.80;1.60;;;;;;;;;;5092919;28;20454;-71
2022/05/28 11:41:20;;;;;;;2.57;1.30;;;;;;;;;;5092774;28;20473;-71
2022/05/28 11:43:49;;;;;;;3.87;1.83;;;;;;;;;;5092618;28;20627;-71
2022/05/28 11:46:21;;;;;;;6.70;1.97;;;;;;;;;;5094393;28;20458;-71
2022/05/28 11:51:40;;;;;;;4.83;1.57;;;;;;;;;;5096855;28;21121;-71
2022/05/28 11:54:09;;;;;;;2.90;1.50;;;;;;;;;;5096589;28;20936;-71
2022/05/28 11:56:36;;;;;;;6.33;1.63;;;;;;;;;;5096701;28;20450;-71
2022/05/28 11:59:06;;;;;;;3.10;1.50;;;;;;;;;;5096939;28;20447;-70
2022/05/28 12:01:39;;;;;;;2.80;1.30;;;;;;;;;;5096728;28;20462;-70
2022/05/28 12:04:07;;;;;;;7.10;1.90;;;;;;;;;;5096434;28;20453;-71
2022/05/28 12:06:36;;;;;;;5.53;2.90;;;;;;;;;;5096695;28;20450;-71
2022/05/28 12:09:07;;;;;;;2.70;1.50;;;;;;;;;;5096458;28;20831;-71
2022/05/28 12:11:40;;;;;;;3.33;1.30;;;;;;;;;;5096546;28;20499;-71
2022/05/28 12:14:08;;;;;;;3.77;1.40;;;;;;;;;;5096256;28;20450;-71
2022/05/28 12:16:37;;;;;;;5.37;1.67;;;;;;;;;;5096590;28;20447;-71
2022/05/28 12:19:06;;;;;;;3.47;1.70;;;;;;;;;;5096438;28;20819;-71
2022/05/28 12:21:35;;;;;;;2.77;1.33;;;;;;;;;;5096333;28;20470;-71
2022/05/28 12:24:08;;;;;;;9.20;2.10;;;;;;;;;;5096288;28;20451;-71
2022/05/28 12:29:34;;;;;;;3.57;1.50;;;;;;;;;;5095286;28;21001;-71
2022/05/28 12:32:10;;;;;;;3.13;1.30;;;;;;;;;;5116352;28;20579;-71
2022/05/28 12:34:40;;;;;;;3.13;1.70;;;;;;;;;;5116448;28;20456;-71
2022/05/28 12:37:15;;;;;;;5.00;1.50;;;;;;;;;;5116331;28;20449;-71
2022/05/28 12:39:46;;;;;;;4.27;3.07;;;;;;;;;;5116412;28;20961;-71
2022/05/28 12:42:21;;;;;;;4.83;4.07;;;;;;;;;;5111100;28;20951;-72
2022/05/28 12:44:51;;;;;;;2.17;1.37;;;;;;;;;;5107027;28;20467;-71
2022/05/28 12:47:25;;;;;;;2.20;1.30;;;;;;;;;;5114790;28;20446;-71
2022/05/28 12:49:56;;;;;;;3.77;1.40;;;;;;;;;;5114754;28;20465;-71
2022/05/28 12:52:30;;;;;;;6.20;1.63;;;;;;;;;;5114525;28;20485;-71
2022/05/28 12:55:05;;;;;;;2.77;1.20;;;;;;;;;;5115437;28;20815;-71
2022/05/28 12:57:34;;;;;;;4.50;1.30;;;;;;;;;;5114766;28;20449;-71
2022/05/28 13:00:02;;;;;;;3.97;1.30;;;;;;;;;;5115741;28;20552;-71
2022/05/28 13:02:33;;;;;;;5.80;2.97;;;;;;;;;;5115608;28;20431;-71
2022/05/28 13:05:03;;;;;;;3.90;2.03;;;;;;;;;;5115171;28;20893;-71
2022/05/28 13:07:34;;;;;;;3.93;1.40;;;;;;;;;;5115128;28;20450;-71
2022/05/28 13:10:05;;;;;;;4.03;1.83;;;;;;;;;;5092986;28;20512;-71
2022/05/28 13:12:35;;;;;;;1.90;1.00;;;;;;;;;;5093930;28;20543;-71
2022/05/28 13:15:17;;;;;;;6.20;2.17;;;;;;;;;;5093432;28;20455;-71
2022/05/28 13:17:55;;;;;;;4.03;2.60;;;;;;;;;;5092224;28;20463;-72
2022/05/28 13:20:27;;;;;;;2.73;1.10;;;;;;;;;;5093670;28;20474;-71
2022/05/28 13:23:09;;;;;;;4.60;1.40;;;;;;;;;;5093840;28;20803;-71
2022/05/28 13:25:50;;;;;;;6.40;1.73;;;;;;;;;;5093431;28;20497;-71
2022/05/28 13:28:22;;;;;;;6.00;1.60;;;;;;;;;;5093160;28;20575;-72
2022/05/28 13:30:51;;;;;;;1.90;1.40;;;;;;;;;;5093394;28;20541;-71
2022/05/28 13:33:19;;;;;;;2.47;1.23;;;;;;;;;;5093485;28;20794;-72
2022/05/28 13:35:47;;;;;;;2.00;1.47;;;;;;;;;;5093297;28;20451;-71
2022/05/28 13:38:17;;;;;;;5.20;1.93;;;;;;;;;;5093095;28;20454;-72
2022/05/28 13:40:45;;;;;;;2.47;1.10;;;;;;;;;;5093335;28;20471;-71
2022/05/28 13:43:14;;;;;;;2.90;1.30;;;;;;;;;;5093069;28;20458;-71
2022/05/28 13:45:43;;;;;;;2.80;1.17;;;;;;;;;;5092927;28;20450;-71
2022/05/28 13:48:12;;;;;;;3.10;1.20;;;;;;;;;;5093065;28;20454;-72
2022/05/28 13:50:40;;;;;;;2.43;1.60;;;;;;;;;;5092997;28;20478;-71
2022/05/28 13:53:08;;;;;;;2.23;1.20;;;;;;;;;;5092745;28;20486;-72
2022/05/28 13:55:40;;;;;;;2.70;1.50;;;;;;;;;;5092827;28;20940;-71
2022/05/28 13:58:17;;;;;;;2.07;1.10;;;;;;;;;;5092835;28;20446;-71
2022/05/28 14:00:44;;;;;;;3.57;1.43;;;;;;;;;;5092960;28;20467;-71
2022/05/28 14:03:11;;;;;;;11.80;2.10;;;;;;;;;;5092851;28;20439;-72
2022/05/28 14:05:42;;;;;;;4.67;1.50;;;;;;;;;;5092670;28;20450;-71
2022/05/28 14:08:12;;;;;;;3.50;1.20;;;;;;;;;;5092402;28;20958;-72
2022/05/28 14:10:41;;;;;;;3.53;1.50;;;;;;;;;;5092531;28;20474;-71
2022/05/28 14:13:21;;;;;;;7.97;3.53;;;;;;;;;;5092804;28;20490;-71
2022/05/28 14:15:51;;;;;;;3.87;2.03;;;;;;;;;;5092494;28;20450;-71
2022/05/28 14:18:20;;;;;;;5.97;1.30;;;;;;;;;;5092523;28;21009;-71
2022/05/28 14:20:47;;;;;;;2.60;1.87;;;;;;;;;;5092547;28;20835;-71
2022/05/28 14:23:25;;;;;;;2.87;1.33;;;;;;;;;;5092331;28;20454;-71
2022/05/28 14:25:52;;;;;;;5.47;1.70;;;;;;;;;;5098981;28;20453;-71
2022/05/28 14:28:21;;;;;;;3.50;1.87;;;;;;;;;;5114183;28;20453;-71
2022/05/28 14:30:49;;;;;;;2.30;1.10;;;;;;;;;;5113181;28;20986;-71
2022/05/28 14:33:22;;;;;;;3.40;1.43;;;;;;;;;;5113844;28;20855;-71
2022/05/28 14:35:49;;;;;;;2.93;1.57;;;;;;;;;;5113946;28;20503;-71
2022/05/28 14:38:25;;;;;;;1.80;1.10;;;;;;;;;;5114009;28;20499;-71
2022/05/28 14:40:54;;;;;;;3.47;1.33;;;;;;;;;;5114039;27;20476;-71
2022/05/28 14:43:27;;;;;;;4.70;1.60;;;;;;;;;;5113657;28;20458;-71
2022/05/28 14:46:02;;;;;;;5.27;1.70;;;;;;;;;;5114173;28;20460;-71
2022/05/28 14:48:30;;;;;;;2.77;1.20;;;;;;;;;;5113817;28;20462;-71
2022/05/28 14:51:02;;;;;;;2.37;1.30;;;;;;;;;;5113662;28;20470;-71
2022/05/28 14:53:31;;;;;;;4.40;1.90;;;;;;;;;;5113806;28;20531;-72
2022/05/28 14:55:58;;;;;;;2.47;1.43;;;;;;;;;;5113698;28;20482;-71
2022/05/28 14:58:27;;;;;;;1.87;1.30;;;;;;;;;;5113781;28;20446;-71
2022/05/28 15:01:05;;;;;;;2.10;1.57;;;;;;;;;;5113792;28;20480;-71
2022/05/28 15:03:33;;;;;;;3.60;1.80;;;;;;;;;;5113724;28;20922;-71
2022/05/28 15:06:09;;;;;;;2.43;1.30;;;;;;;;;;5113720;28;20453;-71